Time;durP1;ratioP1;P1;durP2;ratioP2;P2;SDS_P1;SDS_P2;PMS_P1;PMS_P2;Temp;Humidity;BMP_temperature;BMP_pressure;BME280_temperature;BME280_humidity;BME280_pressure;Samples;Min_cycle;Max_cycle;Signal;HPM_P1;HPM_P2
2022/06/30 00:00:32;;;;;;;8.13;3.85;;;;;;;24.78;52.92;94640.53;4914334;29;20199;-78
2022/06/30 00:02:58;;;;;;;6.30;4.55;;;;;;;24.73;53.16;94632.56;4926867;29;20206;-76
2022/06/30 00:05:25;;;;;;;4.78;4.28;;;;;;;24.72;53.31;94635.41;4933046;29;20287;-78
2022/06/30 00:07:54;;;;;;;6.30;4.30;;;;;;;24.70;53.11;94637.47;4933016;29;20198;-76
2022/06/30 00:10:21;;;;;;;5.32;4.63;;;;;;;24.65;53.03;94638.13;4932981;29;20226;-79
2022/06/30 00:12:48;;;;;;;6.32;4.55;;;;;;;24.62;53.23;94632.56;4933441;29;20233;-80
2022/06/30 00:15:15;;;;;;;3.95;3.65;;;;;;;24.50;53.52;94624.72;4932697;29;20191;-78
2022/06/30 00:17:42;;;;;;;4.53;4.07;;;;;;;24.59;53.52;94643.47;4933117;29;20191;-77
2022/06/30 00:20:10;;;;;;;7.82;4.00;;;;;;;24.55;53.66;94634.47;4932810;29;20195;-80
2022/06/30 00:22:37;;;;;;;7.53;4.32;;;;;;;24.51;53.77;94634.13;4932993;29;20183;-75
2022/06/30 00:25:06;;;;;;;7.25;3.83;;;;;;;24.51;53.79;94634.94;4932733;29;20670;-74
2022/06/30 00:27:33;;;;;;;4.43;3.70;;;;;;;24.49;53.77;94636.19;4933717;29;20241;-76
2022/06/30 00:30:00;;;;;;;5.45;3.40;;;;;;;24.47;53.85;94631.16;4937918;29;20242;-75
2022/06/30 00:32:28;;;;;;;5.70;3.88;;;;;;;24.42;53.83;94631.06;4938489;29;20336;-75
2022/06/30 00:34:55;;;;;;;3.95;3.47;;;;;;;24.42;53.85;94633.66;4937324;29;20262;-81
2022/06/30 00:37:22;;;;;;;5.75;4.00;;;;;;;24.39;53.86;94638.53;4936944;29;20199;-79
2022/06/30 00:39:49;;;;;;;7.05;3.90;;;;;;;24.37;53.87;94632.72;4937099;29;20191;-81
2022/06/30 00:42:17;;;;;;;4.03;3.67;;;;;;;24.33;53.98;94629.75;4936944;29;20187;-77
2022/06/30 00:44:44;;;;;;;3.65;3.33;;;;;;;24.29;53.78;94633.84;4936957;29;20199;-75
2022/06/30 00:47:11;;;;;;;5.63;4.05;;;;;;;24.27;53.86;94628.84;4936547;29;20195;-74
2022/06/30 00:49:38;;;;;;;4.70;3.45;;;;;;;24.25;53.84;94635.31;4936471;29;20223;-75
2022/06/30 00:52:10;;;;;;;4.85;3.75;;;;;;;24.22;53.99;94633.97;4936185;29;20686;-80
2022/06/30 00:54:39;;;;;;;5.75;3.35;;;;;;;24.20;53.90;94632.56;4936348;29;20659;-77
2022/06/30 00:57:08;;;;;;;5.15;3.78;;;;;;;24.17;54.21;94633.81;4936716;29;20190;-78
2022/06/30 00:59:39;;;;;;;3.75;3.45;;;;;;;24.16;54.09;94636.66;4936585;29;20192;-77
2022/06/30 01:02:07;;;;;;;4.75;3.80;;;;;;;24.10;54.13;94627.09;4936351;29;20199;-84
2022/06/30 01:04:35;;;;;;;4.00;3.65;;;;;;;24.06;54.28;94623.34;4936318;29;20202;-78
2022/06/30 01:07:04;;;;;;;5.10;4.30;;;;;;;24.04;54.49;94620.94;4936075;29;20574;-80
2022/06/30 01:15:02;;;;;;;7.05;4.13;;;;;;;23.97;54.67;94626.25;4936788;29;20183;-79
2022/06/30 01:17:29;;;;;;;4.85;3.78;;;;;;;23.95;54.79;94625.69;4935951;29;20198;-80
2022/06/30 01:19:57;;;;;;;5.63;4.07;;;;;;;23.92;54.75;94626.13;4936124;29;20214;-83
2022/06/30 01:22:25;;;;;;;3.90;3.47;;;;;;;23.91;54.98;94628.94;4935923;29;20212;-78
2022/06/30 01:24:52;;;;;;;5.10;4.18;;;;;;;23.86;55.04;94621.78;4936105;29;20195;-75
2022/06/30 01:27:20;;;;;;;7.20;4.43;;;;;;;23.88;55.09;94632.81;4935624;29;20224;-80
2022/06/30 01:29:47;;;;;;;4.55;4.15;;;;;;;23.86;55.15;94619.16;4935870;29;20306;-84
2022/06/30 01:32:14;;;;;;;6.85;4.20;;;;;;;23.83;55.48;94624.84;4935329;29;20210;-84
2022/06/30 01:34:41;;;;;;;4.40;4.00;;;;;;;23.72;55.42;94613.34;4935945;29;20199;-84
2022/06/30 01:37:08;;;;;;;4.03;3.63;;;;;;;23.79;55.71;94631.50;4935847;29;20199;-83
2022/06/30 01:39:37;;;;;;;5.00;4.05;;;;;;;23.78;55.69;94627.31;4935117;29;20195;-84
2022/06/30 01:42:04;;;;;;;6.00;4.10;;;;;;;23.76;55.86;94627.53;4935728;29;20213;-84
2022/06/30 01:44:31;;;;;;;9.05;4.35;;;;;;;23.73;55.85;94622.75;4935772;29;20203;-86
2022/06/30 01:46:58;;;;;;;4.10;3.80;;;;;;;23.71;55.86;94619.59;4935342;29;20677;-80
2022/06/30 01:49:25;;;;;;;4.50;4.10;;;;;;;23.69;55.99;94618.19;4935902;29;20227;-85
2022/06/30 01:51:52;;;;;;;4.90;3.60;;;;;;;23.68;55.88;94621.84;4935618;29;20610;-84
2022/06/30 01:54:19;;;;;;;4.47;3.80;;;;;;;23.64;55.95;94615.44;4935307;29;20590;-82
2022/06/30 01:56:47;;;;;;;6.80;4.10;;;;;;;23.65;56.02;94617.03;4935647;29;20200;-78
2022/06/30 01:59:14;;;;;;;5.90;4.00;;;;;;;23.62;55.95;94613.03;4935323;29;20676;-77
2022/06/30 02:01:41;;;;;;;5.40;3.95;;;;;;;23.61;56.04;94621.09;4935331;29;20187;-77
2022/06/30 02:07:07;;;;;;;4.22;3.85;;;;;;;23.54;56.08;94629.81;4895314;29;20221;-74
2022/06/30 02:09:34;;;;;;;6.28;4.05;;;;;;;23.53;56.20;94628.22;4895388;29;20193;-78
2022/06/30 02:14:46;;;;;;;6.43;4.07;;;;;;;23.49;55.91;94631.47;4895332;29;20269;-79
2022/06/30 02:17:13;;;;;;;6.53;4.18;;;;;;;23.45;56.26;94627.72;4895033;29;20200;-83
2022/06/30 02:19:40;;;;;;;4.60;4.03;;;;;;;23.45;56.21;94638.94;4895150;29;20207;-81
2022/06/30 02:22:07;;;;;;;3.85;3.53;;;;;;;23.41;56.33;94621.34;4894830;29;20189;-84
2022/06/30 02:24:34;;;;;;;4.45;4.05;;;;;;;23.35;56.09;94614.38;4894905;29;20573;-83
2022/06/30 02:27:02;;;;;;;6.07;3.53;;;;;;;23.31;56.24;94624.44;4894948;29;20371;-82
2022/06/30 02:29:29;;;;;;;7.57;3.78;;;;;;;23.35;56.19;94623.00;4894855;29;20369;-78
2022/06/30 02:31:56;;;;;;;5.50;3.55;;;;;;;23.35;56.23;94628.22;4894987;29;20235;-84
2022/06/30 02:34:23;;;;;;;4.70;4.30;;;;;;;23.34;56.01;94633.66;4894653;29;20214;-84
2022/06/30 02:36:50;;;;;;;6.28;3.38;;;;;;;23.32;56.22;94627.88;4894827;29;20661;-83
2022/06/30 02:39:17;;;;;;;5.03;3.92;;;;;;;23.28;56.13;94630.13;4934614;29;20183;-86
2022/06/30 02:41:44;;;;;;;5.95;3.55;;;;;;;23.28;56.11;94636.13;4934933;29;20199;-86
2022/06/30 02:44:12;;;;;;;6.57;4.30;;;;;;;23.25;56.21;94633.16;4934388;29;20191;-76
2022/06/30 02:46:39;;;;;;;3.72;3.30;;;;;;;23.24;56.21;94634.16;4934476;29;20194;-74
2022/06/30 02:49:06;;;;;;;4.32;3.92;;;;;;;23.23;56.10;94640.41;4934800;29;20207;-85
2022/06/30 02:51:33;;;;;;;5.85;3.70;;;;;;;23.21;56.32;94638.00;4934490;29;20272;-79
2022/06/30 02:54:00;;;;;;;3.97;3.60;;;;;;;23.18;56.33;94630.59;4934105;29;20567;-74
2022/06/30 02:56:26;;;;;;;6.45;3.65;;;;;;;23.18;56.34;94637.63;4934569;29;20199;-74
2022/06/30 02:58:53;;;;;;;5.43;3.33;;;;;;;23.18;56.35;94642.84;4934028;29;20196;-78
2022/06/30 03:01:22;;;;;;;4.35;3.55;;;;;;;23.17;56.49;94644.66;4934352;29;20199;-83
2022/06/30 03:03:48;;;;;;;6.38;3.70;;;;;;;23.11;56.39;94640.31;4934505;29;20206;-85
2022/06/30 03:06:15;;;;;;;3.90;3.58;;;;;;;23.09;56.52;94634.50;4933990;29;20259;-85
2022/06/30 03:08:42;;;;;;;3.92;3.60;;;;;;;23.14;56.52;94634.66;4934262;29;20203;-82
2022/06/30 03:11:16;;;;;;;4.28;3.88;;;;;;;23.14;56.44;94631.25;4934019;29;20219;-85
2022/06/30 03:13:44;;;;;;;4.65;3.60;;;;;;;23.15;56.91;94635.47;4934761;29;20255;-78
2022/06/30 03:16:11;;;;;;;4.80;3.70;;;;;;;23.10;56.72;94625.69;4934611;29;20560;-84
2022/06/30 03:18:39;;;;;;;7.35;3.78;;;;;;;23.13;56.76;94625.25;4934533;29;20257;-86
2022/06/30 03:21:06;;;;;;;4.95;3.17;;;;;;;23.11;56.94;94616.84;4934359;29;20197;-84
2022/06/30 03:23:34;;;;;;;5.15;3.58;;;;;;;23.16;56.97;94624.03;4933890;29;20205;-79
2022/06/30 03:26:01;;;;;;;4.22;3.85;;;;;;;23.18;56.94;94627.19;4933878;29;20191;-82
2022/06/30 03:28:28;;;;;;;5.82;4.03;;;;;;;23.18;56.82;94628.00;4933788;29;20636;-74
2022/06/30 03:30:55;;;;;;;4.90;3.75;;;;;;;23.20;57.13;94631.19;4933520;29;20262;-82
2022/06/30 03:33:23;;;;;;;5.20;3.78;;;;;;;23.21;57.23;94626.78;4933985;29;20264;-84
2022/06/30 03:35:51;;;;;;;5.22;3.70;;;;;;;23.25;57.19;94631.34;4934086;29;20191;-78
2022/06/30 03:38:18;;;;;;;4.03;3.60;;;;;;;23.26;57.09;94632.91;4938145;29;20219;-77
2022/06/30 03:40:45;;;;;;;4.10;3.47;;;;;;;23.28;57.17;94633.53;4937201;29;20195;-78
2022/06/30 03:43:12;;;;;;;4.80;3.60;;;;;;;23.31;56.96;94632.25;4934144;29;20199;-84
2022/06/30 03:45:39;;;;;;;5.00;3.60;;;;;;;23.34;57.09;94636.25;4934133;29;20198;-81
2022/06/30 03:48:07;;;;;;;6.53;3.83;;;;;;;23.35;57.08;94630.81;4933264;29;20203;-83
2022/06/30 03:50:35;;;;;;;7.47;3.28;;;;;;;23.40;57.11;94645.81;4933663;29;20242;-83
2022/06/30 03:53:04;;;;;;;5.13;3.80;;;;;;;23.36;57.09;94629.00;4933251;29;20206;-80
2022/06/30 03:55:33;;;;;;;6.25;3.60;;;;;;;23.44;57.05;94636.53;4934010;29;20202;-85
2022/06/30 03:58:00;;;;;;;8.95;4.25;;;;;;;23.50;56.93;94633.88;4933423;29;20199;-86
2022/06/30 04:00:27;;;;;;;8.10;4.05;;;;;;;23.54;56.96;94640.25;4933534;29;20194;-86
2022/06/30 04:02:54;;;;;;;5.43;3.67;;;;;;;23.59;57.09;94642.19;4932872;29;20191;-84
2022/06/30 04:05:21;;;;;;;8.68;3.92;;;;;;;23.63;56.84;94640.75;4933383;29;20195;-86
2022/06/30 04:07:48;;;;;;;8.02;4.00;;;;;;;23.70;57.06;94643.28;4933179;29;20202;-84
2022/06/30 04:10:18;;;;;;;7.10;3.60;;;;;;;23.75;56.99;94646.06;4933344;29;20671;-84
2022/06/30 04:12:45;;;;;;;5.90;3.50;;;;;;;23.82;56.71;94643.34;4932891;29;20195;-78
2022/06/30 04:15:12;;;;;;;7.00;3.80;;;;;;;23.85;56.48;94643.72;4933627;29;20198;-75
2022/06/30 04:17:39;;;;;;;6.47;4.20;;;;;;;23.85;56.39;94628.03;4933180;29;20304;-77
2022/06/30 04:20:15;;;;;;;5.90;4.32;;;;;;;23.95;56.46;94638.75;4933168;29;20235;-74
2022/06/30 04:22:43;;;;;;;7.65;4.38;;;;;;;24.02;56.47;94642.06;4933050;29;20682;-78
2022/06/30 04:25:11;;;;;;;6.60;3.72;;;;;;;24.05;56.41;94633.00;4933172;29;20230;-75
2022/06/30 04:27:43;;;;;;;9.40;4.88;;;;;;;24.15;56.39;94640.28;4933016;29;20226;-76
2022/06/30 04:30:11;;;;;;;7.00;4.30;;;;;;;24.16;56.22;94629.59;4933364;29;20198;-80
2022/06/30 04:32:37;;;;;;;5.75;5.10;;;;;;;24.23;56.26;94640.78;4933118;29;20317;-76
2022/06/30 04:35:05;;;;;;;8.48;5.60;;;;;;;24.26;56.55;94640.31;4933222;29;20317;-78
2022/06/30 04:37:32;;;;;;;14.00;6.07;;;;;;;24.32;56.40;94632.59;4933657;29;20287;-84
2022/06/30 04:42:45;;;;;;;5.78;5.20;;;;;;;24.43;56.54;94639.69;4933377;29;20202;-79
2022/06/30 04:45:12;;;;;;;8.10;5.95;;;;;;;24.49;56.39;94641.44;4933445;29;20693;-82
2022/06/30 04:47:40;;;;;;;8.65;6.00;;;;;;;24.52;56.43;94639.16;4933561;29;20573;-82
2022/06/30 04:50:07;;;;;;;11.32;6.30;;;;;;;24.54;56.48;94638.94;4933786;29;20203;-84
2022/06/30 04:52:35;;;;;;;7.93;6.40;;;;;;;24.60;56.41;94640.63;4933462;29;20241;-85
2022/06/30 04:55:02;;;;;;;5.65;5.10;;;;;;;24.67;56.06;94645.75;4933644;29;20188;-81
2022/06/30 04:57:29;;;;;;;9.48;5.07;;;;;;;24.70;56.11;94642.69;4933781;29;20206;-85
2022/06/30 04:59:57;;;;;;;9.68;5.32;;;;;;;24.78;55.90;94651.00;4934013;29;20191;-75
2022/06/30 05:02:25;;;;;;;9.85;5.53;;;;;;;24.84;55.71;94648.50;4935532;29;20566;-84
2022/06/30 05:04:51;;;;;;;9.77;5.30;;;;;;;24.91;55.90;94649.16;4936570;29;20255;-75
2022/06/30 05:07:18;;;;;;;5.35;4.85;;;;;;;24.95;55.58;94643.25;4936507;29;20195;-75
2022/06/30 05:09:45;;;;;;;8.73;5.38;;;;;;;25.01;55.65;94644.97;4935267;29;20206;-80
2022/06/30 05:12:12;;;;;;;6.05;5.45;;;;;;;25.10;56.05;94652.50;4935646;29;20226;-75
2022/06/30 05:14:39;;;;;;;8.23;5.18;;;;;;;25.29;55.76;94651.34;4936317;29;20613;-75
2022/06/30 05:17:07;;;;;;;7.03;4.45;;;;;;;25.62;57.58;94661.19;4937391;29;20689;-84
2022/06/30 05:19:34;;;;;;;6.88;4.82;;;;;;;26.06;58.58;94658.91;4936500;29;20202;-80
2022/06/30 05:22:02;;;;;;;6.95;4.90;;;;;;;26.60;58.77;94661.13;4936586;29;20286;-84
2022/06/30 05:27:14;;;;;;;5.82;4.22;;;;;;;28.04;58.34;94668.09;4936881;29;20286;-84
2022/06/30 05:29:40;;;;;;;10.35;4.95;;;;;;;28.83;57.29;94661.47;4936582;29;20209;-77
2022/06/30 05:32:09;;;;;;;5.88;4.68;;;;;;;29.70;55.73;94665.44;4936227;29;20226;-84
2022/06/30 05:34:36;;;;;;;7.55;4.85;;;;;;;30.56;54.19;94662.22;4935962;29;20214;-85
2022/06/30 05:37:04;;;;;;;7.10;4.95;;;;;;;31.43;52.29;94662.16;4935965;29;20663;-76
2022/06/30 05:39:32;;;;;;;6.80;4.38;;;;;;;32.38;50.21;94672.59;4936020;29;20209;-81
2022/06/30 05:41:59;;;;;;;5.97;4.03;;;;;;;33.24;48.42;94665.03;4935836;29;20195;-85
2022/06/30 05:44:26;;;;;;;5.60;4.38;;;;;;;34.12;46.52;94676.28;4935853;29;20566;-84
2022/06/30 05:46:54;;;;;;;6.85;4.65;;;;;;;34.95;44.91;94678.22;4935743;29;20250;-82
2022/06/30 05:49:22;;;;;;;7.82;4.47;;;;;;;35.75;43.41;94680.81;4935825;29;20201;-84
2022/06/30 05:51:49;;;;;;;10.90;3.83;;;;;;;36.50;41.75;94684.88;4935460;29;20318;-75
2022/06/30 05:54:16;;;;;;;9.13;4.72;;;;;;;37.20;40.51;94683.47;4935828;29;20600;-75
2022/06/30 05:56:43;;;;;;;9.50;4.38;;;;;;;37.86;38.97;94685.19;4935648;29;20265;-75
2022/06/30 05:59:10;;;;;;;12.32;4.25;;;;;;;38.53;37.99;94684.06;4935577;29;20184;-76
2022/06/30 06:01:37;;;;;;;6.57;3.63;;;;;;;39.19;36.75;94693.75;4935433;29;20187;-75
2022/06/30 06:04:05;;;;;;;7.75;4.30;;;;;;;39.80;35.73;94697.03;4935679;29;20199;-77
2022/06/30 06:06:33;;;;;;;6.20;3.90;;;;;;;40.38;34.47;94690.09;4935547;29;20195;-78
2022/06/30 06:09:00;;;;;;;6.93;4.40;;;;;;;40.93;33.60;94699.72;4935759;29;20542;-76
2022/06/30 06:11:27;;;;;;;6.00;3.80;;;;;;;41.49;33.03;94704.72;4935136;29;20717;-76
2022/06/30 06:13:54;;;;;;;6.35;4.15;;;;;;;41.97;32.37;94695.91;4935769;29;20582;-75
2022/06/30 06:16:21;;;;;;;9.20;4.43;;;;;;;42.50;31.92;94702.13;4935226;29;20205;-77
2022/06/30 06:18:48;;;;;;;6.65;4.35;;;;;;;42.94;30.89;94704.09;4935337;29;20198;-83
2022/06/30 06:21:15;;;;;;;8.98;4.13;;;;;;;43.38;30.26;94709.50;4935553;29;20202;-76
2022/06/30 06:23:43;;;;;;;5.32;3.97;;;;;;;43.79;29.76;94711.69;4935226;29;20191;-86
2022/06/30 06:26:10;;;;;;;5.60;3.90;;;;;;;44.19;29.08;94710.69;4934671;29;20194;-79
2022/06/30 06:31:21;;;;;;;8.15;3.92;;;;;;;44.84;27.90;94695.88;4935680;29;20649;-86
2022/06/30 06:33:48;;;;;;;6.85;4.60;;;;;;;45.27;27.74;94709.06;4935742;29;20634;-83
2022/06/30 06:36:15;;;;;;;6.25;4.53;;;;;;;45.59;27.22;94710.75;4935458;29;20194;-83
2022/06/30 06:38:45;;;;;;;8.23;4.35;;;;;;;45.89;27.37;94708.16;4934781;29;20195;-81
2022/06/30 06:41:12;;;;;;;7.63;4.20;;;;;;;46.16;26.51;94708.94;4935059;29;20198;-76
2022/06/30 06:43:39;;;;;;;7.93;4.53;;;;;;;46.40;26.64;94708.53;4935589;29;20197;-75
2022/06/30 06:46:06;;;;;;;4.57;4.18;;;;;;;46.60;25.89;94686.78;4935943;29;20186;-76
2022/06/30 06:48:33;;;;;;;6.32;4.60;;;;;;;46.85;25.71;94695.94;4935868;29;20205;-76
2022/06/30 06:51:00;;;;;;;8.95;5.05;;;;;;;47.08;26.04;94695.84;4935304;29;20187;-75
2022/06/30 06:53:27;;;;;;;8.02;4.35;;;;;;;47.28;25.19;94690.97;4934589;29;20289;-75
2022/06/30 06:55:55;;;;;;;9.65;4.28;;;;;;;47.46;24.97;94697.38;4934901;29;20195;-76
2022/06/30 06:58:22;;;;;;;6.90;4.50;;;;;;;47.61;25.11;94681.22;4934502;29;20195;-77
2022/06/30 07:00:49;;;;;;;8.80;4.72;;;;;;;47.85;24.52;94696.16;4934470;29;20562;-75
2022/06/30 07:03:16;;;;;;;6.57;4.63;;;;;;;48.03;24.40;94694.38;4934578;29;20197;-78
2022/06/30 07:05:43;;;;;;;8.68;3.95;;;;;;;48.19;24.71;94697.56;4934400;29;20282;-86
2022/06/30 07:08:10;;;;;;;6.68;4.30;;;;;;;48.35;24.23;94693.75;4934327;29;20633;-85
2022/06/30 07:10:37;;;;;;;6.88;4.00;;;;;;;48.46;23.64;94686.47;4934442;29;20202;-85
2022/06/30 07:13:05;;;;;;;9.43;4.60;;;;;;;48.56;23.51;94693.88;4934278;29;20225;-87
2022/06/30 07:15:32;;;;;;;9.57;5.07;;;;;;;48.66;23.75;94681.50;4934193;29;20651;-84
2022/06/30 07:17:59;;;;;;;9.43;4.57;;;;;;;48.77;23.88;94689.72;4934715;29;20289;-83
2022/06/30 07:20:26;;;;;;;7.25;4.55;;;;;;;48.68;23.42;94657.47;4934077;29;20257;-76
2022/06/30 07:22:54;;;;;;;11.73;5.20;;;;;;;48.86;23.39;94673.84;4934107;29;20205;-79
2022/06/30 07:25:21;;;;;;;5.35;4.13;;;;;;;49.01;23.59;94686.28;4934042;29;20205;-75
2022/06/30 07:27:48;;;;;;;11.50;4.93;;;;;;;49.04;23.46;94680.06;4934235;29;20230;-85
2022/06/30 07:30:16;;;;;;;6.30;4.68;;;;;;;49.16;23.17;94681.69;4934937;29;20205;-79
2022/06/30 07:32:43;;;;;;;12.80;4.97;;;;;;;49.24;22.89;94677.81;4935223;29;20234;-81
2022/06/30 07:35:11;;;;;;;5.47;4.53;;;;;;;49.21;22.62;94668.47;4933732;29;20190;-75
2022/06/30 07:37:39;;;;;;;7.68;4.40;;;;;;;49.34;22.52;94684.41;4933467;29;20212;-76
2022/06/30 07:40:07;;;;;;;6.80;4.68;;;;;;;49.36;22.56;94685.59;4933847;29;20203;-80
2022/06/30 07:42:35;;;;;;;6.47;4.15;;;;;;;49.17;22.54;94648.69;4933641;29;20229;-76
2022/06/30 07:45:02;;;;;;;5.95;4.38;;;;;;;49.40;22.60;94680.94;4933481;29;20210;-80
2022/06/30 07:47:30;;;;;;;7.88;4.32;;;;;;;49.40;22.76;94689.09;4934110;29;20190;-83
2022/06/30 07:49:57;;;;;;;5.90;4.28;;;;;;;49.39;22.46;94682.06;4936053;29;20480;-85
2022/06/30 07:52:25;;;;;;;9.43;4.53;;;;;;;49.38;22.47;94680.53;4934073;29;20187;-86
2022/06/30 07:54:52;;;;;;;5.65;4.72;;;;;;;49.33;22.21;94678.19;4933679;29;20194;-84
2022/06/30 07:57:20;;;;;;;5.00;4.25;;;;;;;49.29;22.46;94673.94;4933478;29;20202;-86
2022/06/30 07:59:47;;;;;;;9.90;5.10;;;;;;;49.30;22.12;94678.97;4933897;29;20201;-84
2022/06/30 08:02:14;;;;;;;9.80;4.75;;;;;;;49.22;22.64;94674.69;4933346;29;20618;-76
2022/06/30 08:04:42;;;;;;;8.60;4.40;;;;;;;49.19;22.32;94672.75;4934037;29;20194;-76
2022/06/30 08:07:09;;;;;;;10.32;4.55;;;;;;;49.14;21.92;94676.66;4934300;29;20206;-77
2022/06/30 08:09:36;;;;;;;6.28;4.18;;;;;;;49.05;22.04;94673.47;4934991;29;20190;-78
2022/06/30 08:12:06;;;;;;;5.72;4.80;;;;;;;48.99;22.33;94680.47;4933246;29;20191;-78
2022/06/30 08:14:33;;;;;;;6.03;4.22;;;;;;;48.86;21.90;94666.47;4933505;29;20233;-85
2022/06/30 08:17:01;;;;;;;8.68;4.40;;;;;;;48.76;21.94;94669.94;4933190;29;20202;-75
2022/06/30 08:19:29;;;;;;;8.18;5.35;;;;;;;48.66;22.07;94665.97;4934083;29;20254;-84
2022/06/30 08:21:57;;;;;;;5.57;4.25;;;;;;;48.60;22.12;94674.88;4933712;29;20214;-76
2022/06/30 08:24:24;;;;;;;4.78;4.38;;;;;;;48.47;22.39;94667.09;4933156;29;20289;-84
2022/06/30 08:26:51;;;;;;;5.78;4.47;;;;;;;48.36;22.28;94670.88;4933632;29;20629;-75
2022/06/30 08:29:18;;;;;;;6.15;3.65;;;;;;;48.24;21.89;94659.22;4933343;29;20187;-79
2022/06/30 08:31:45;;;;;;;5.00;3.85;;;;;;;48.08;22.24;94658.72;4933304;29;20598;-78
2022/06/30 08:34:11;;;;;;;5.88;3.92;;;;;;;48.02;22.55;94673.78;4933087;29;20198;-79
2022/06/30 08:36:38;;;;;;;7.15;3.95;;;;;;;47.89;22.04;94672.53;4933306;29;20205;-85
2022/06/30 08:42:02;;;;;;;4.53;3.97;;;;;;;47.74;22.06;94668.97;4933107;29;20194;-84
2022/06/30 08:42:03;;;;;;;6.40;3.53;;;;;;;47.56;22.33;94673.44;4933104;29;20266;-84
2022/06/30 08:44:33;;;;;;;9.55;4.20;;;;;;;47.42;22.34;94683.03;4933697;29;20194;-86
2022/06/30 08:46:59;;;;;;;8.75;4.38;;;;;;;47.27;22.25;94673.16;4933003;29;20194;-84
2022/06/30 08:49:27;;;;;;;4.65;3.75;;;;;;;47.11;22.74;94675.34;4934773;29;20205;-83
2022/06/30 08:51:59;;;;;;;5.45;4.20;;;;;;;46.96;22.35;94682.56;4936900;29;20194;-86
2022/06/30 08:54:28;;;;;;;4.38;3.95;;;;;;;46.79;22.66;94678.47;4936922;29;20195;-81
2022/06/30 08:56:57;;;;;;;6.15;3.28;;;;;;;46.61;22.91;94678.28;4937112;29;20187;-77
2022/06/30 08:59:24;;;;;;;6.55;3.80;;;;;;;46.45;22.67;94677.66;4936675;29;20194;-76
2022/06/30 09:01:54;;;;;;;6.85;4.30;;;;;;;46.26;22.71;94679.38;4936960;29;20225;-79
2022/06/30 09:04:22;;;;;;;6.10;3.90;;;;;;;46.02;23.05;94663.53;4936100;29;20590;-76
2022/06/30 09:06:49;;;;;;;3.65;3.30;;;;;;;45.79;23.19;94658.97;4936722;29;20551;-79
2022/06/30 09:09:16;;;;;;;3.63;3.17;;;;;;;45.73;23.66;94668.53;4936600;29;20233;-79
2022/06/30 09:11:50;;;;;;;5.82;3.65;;;;;;;45.57;23.63;94667.13;4936773;29;20194;-84
2022/06/30 09:14:32;;;;;;;4.70;3.15;;;;;;;45.37;23.39;94671.78;4936657;29;20578;-84
2022/06/30 09:17:01;;;;;;;6.82;3.92;;;;;;;45.12;23.59;94650.50;4936697;29;20201;-82
2022/06/30 09:19:33;;;;;;;5.70;3.90;;;;;;;44.99;24.00;94663.38;4936702;29;20257;-76
2022/06/30 09:22:04;;;;;;;5.38;3.92;;;;;;;44.71;24.08;94642.06;4936413;29;20187;-82
2022/06/30 09:24:32;;;;;;;4.03;3.72;;;;;;;44.63;23.92;94651.16;4936549;29;20210;-83
2022/06/30 09:27:27;;;;;;;4.95;3.90;;;;;;;44.41;24.04;94643.75;4936047;29;20235;-81
2022/06/30 09:29:55;;;;;;;6.13;3.55;;;;;;;44.24;24.61;94653.81;4936304;29;20191;-78
2022/06/30 09:32:25;;;;;;;6.75;4.00;;;;;;;44.04;24.27;94647.56;4935820;29;20206;-80
2022/06/30 09:34:53;;;;;;;4.13;3.30;;;;;;;43.77;24.30;94633.09;4936123;29;20261;-84
2022/06/30 09:37:23;;;;;;;5.68;3.40;;;;;;;43.71;24.30;94645.28;4935959;29;20198;-79
2022/06/30 09:39:51;;;;;;;4.40;3.75;;;;;;;43.53;24.71;94638.72;4935999;29;20194;-80
2022/06/30 09:42:40;;;;;;;3.95;3.50;;;;;;;43.34;24.66;94642.06;4935353;29;20207;-76
2022/06/30 09:45:10;;;;;;;5.40;3.33;;;;;;;43.15;25.07;94645.47;4935511;29;20663;-78
2022/06/30 09:47:51;;;;;;;4.50;4.10;;;;;;;42.97;25.11;94641.53;4935769;29;20269;-75
2022/06/30 09:50:19;;;;;;;5.30;3.47;;;;;;;42.78;25.15;94640.25;4935798;29;20281;-77
2022/06/30 09:52:46;;;;;;;7.18;3.72;;;;;;;42.60;25.01;94642.44;4936018;29;20190;-74
2022/06/30 09:55:14;;;;;;;5.45;3.70;;;;;;;42.45;25.37;94640.50;4935869;29;20201;-81
2022/06/30 09:57:47;;;;;;;6.43;3.63;;;;;;;42.26;25.44;94633.03;4935534;29;20201;-77
2022/06/30 10:00:18;;;;;;;4.82;3.90;;;;;;;41.95;25.66;94619.44;4934894;29;20198;-75
2022/06/30 10:02:47;;;;;;;4.57;3.38;;;;;;;41.85;26.01;94642.19;4935491;29;20210;-75
2022/06/30 10:05:15;;;;;;;6.70;4.10;;;;;;;41.66;25.99;94631.19;4935448;29;20201;-80
2022/06/30 10:07:42;;;;;;;4.32;3.60;;;;;;;41.49;25.97;94627.63;4935277;29;20281;-82
2022/06/30 10:10:11;;;;;;;7.28;4.10;;;;;;;41.31;26.26;94623.56;4935350;29;20586;-85
2022/06/30 10:12:39;;;;;;;5.70;3.75;;;;;;;41.19;26.25;94632.38;4934965;29;20697;-81
2022/06/30 10:15:09;;;;;;;4.18;3.72;;;;;;;41.06;26.24;94628.09;4935482;29;20261;-85
2022/06/30 10:17:43;;;;;;;4.38;3.80;;;;;;;40.91;26.77;94628.75;4935779;29;20663;-78
2022/06/30 10:20:11;;;;;;;4.70;3.92;;;;;;;40.63;26.67;94605.19;4935502;29;20198;-74
2022/06/30 10:22:40;;;;;;;5.82;3.95;;;;;;;40.60;26.86;94622.72;4935098;29;20711;-75
2022/06/30 10:25:08;;;;;;;3.97;3.63;;;;;;;40.47;27.05;94615.72;4935927;29;20199;-82
2022/06/30 10:27:37;;;;;;;3.80;3.47;;;;;;;40.30;26.90;94608.63;4935906;29;20230;-74
2022/06/30 10:30:09;;;;;;;3.95;3.53;;;;;;;40.23;27.10;94618.28;4936899;29;20195;-76
2022/06/30 10:32:48;;;;;;;7.22;3.40;;;;;;;40.09;27.20;94611.31;4935271;29;20230;-75
2022/06/30 10:35:28;;;;;;;4.05;3.50;;;;;;;39.84;27.52;94588.91;4935464;29;20195;-74
2022/06/30 10:37:59;;;;;;;5.68;3.65;;;;;;;39.82;27.50;94609.91;4935782;29;20217;-75
2022/06/30 10:40:41;;;;;;;5.53;3.63;;;;;;;39.60;27.34;94586.06;4935443;29;20201;-77
2022/06/30 10:43:10;;;;;;;6.32;3.50;;;;;;;39.39;27.48;94569.97;4934964;29;20257;-77
2022/06/30 10:46:00;;;;;;;8.70;3.75;;;;;;;39.44;27.75;94596.53;4935277;29;20262;-75
2022/06/30 10:48:49;;;;;;;5.97;3.83;;;;;;;39.32;27.57;94596.44;4934915;29;20203;-75
2022/06/30 10:51:16;;;;;;;4.55;3.45;;;;;;;39.20;27.51;94590.94;4934983;29;20199;-76
2022/06/30 10:53:57;;;;;;;7.35;3.30;;;;;;;39.03;27.83;94565.84;4934926;29;20201;-76
2022/06/30 10:56:26;;;;;;;5.25;3.47;;;;;;;39.01;27.89;94580.66;4934906;29;20194;-77
2022/06/30 10:59:14;;;;;;;8.18;3.42;;;;;;;38.91;27.81;94579.13;4934537;29;20191;-80
2022/06/30 11:02:33;;;;;;;7.32;3.47;;;;;;;38.74;27.73;94571.13;4935064;29;20582;-77
2022/06/30 11:05:24;;;;;;;4.82;3.10;;;;;;;38.67;27.92;94568.13;4841074;29;20208;-77
2022/06/30 11:07:51;;;;;;;5.13;3.15;;;;;;;38.53;27.96;94558.44;4841775;29;20234;-80
2022/06/30 11:10:19;;;;;;;4.47;3.38;;;;;;;38.47;28.10;94570.38;4841818;29;20655;-77
2022/06/30 11:12:59;;;;;;;4.38;3.05;;;;;;;38.39;28.16;94569.31;4840874;29;20578;-81
2022/06/30 11:15:52;;;;;;;3.22;3.00;;;;;;;38.32;28.01;94560.19;4843937;29;20203;-80
2022/06/30 11:18:20;;;;;;;3.55;2.78;;;;;;;38.23;28.32;94560.16;4841620;29;20216;-76
2022/06/30 11:20:50;;;;;;;3.75;2.95;;;;;;;38.15;28.25;94561.75;4841984;29;20208;-83
2022/06/30 11:23:19;;;;;;;3.42;3.10;;;;;;;38.06;28.22;94550.28;4840339;29;20240;-84
2022/06/30 11:28:36;;;;;;;5.60;2.90;;;;;;;37.83;28.18;94543.50;4841821;29;20225;-77
2022/06/30 11:31:03;;;;;;;4.80;2.90;;;;;;;37.75;28.26;94547.75;4841361;29;20280;-85
2022/06/30 11:33:30;;;;;;;2.80;2.60;;;;;;;37.64;28.09;94541.91;4841508;29;20194;-77
2022/06/30 11:36:09;;;;;;;3.60;2.97;;;;;;;37.51;28.49;94539.38;4841226;29;20719;-78
2022/06/30 11:38:36;;;;;;;5.40;2.60;;;;;;;37.42;28.63;94532.13;4840497;29;20732;-77
2022/06/30 11:43:52;;;;;;;2.90;2.60;;;;;;;37.32;28.71;94537.75;4934932;29;20630;-76
2022/06/30 11:46:20;;;;;;;4.90;2.83;;;;;;;37.22;28.75;94532.72;4934605;29;20368;-82
2022/06/30 11:48:47;;;;;;;3.35;2.95;;;;;;;37.16;28.70;94532.06;4935216;29;20282;-77
2022/06/30 11:51:16;;;;;;;3.65;3.00;;;;;;;37.02;28.99;94519.94;4934723;29;20286;-78
2022/06/30 11:53:43;;;;;;;4.93;2.75;;;;;;;36.94;29.11;94510.03;4934337;29;20274;-80
2022/06/30 11:56:12;;;;;;;3.80;2.63;;;;;;;36.94;29.34;94529.47;4934409;29;20202;-77
2022/06/30 11:58:39;;;;;;;4.35;3.10;;;;;;;36.89;29.38;94535.69;4934559;29;20241;-81
2022/06/30 12:01:17;;;;;;;4.03;2.90;;;;;;;36.81;29.55;94525.00;4934176;29;20201;-83
2022/06/30 12:03:44;;;;;;;4.30;2.92;;;;;;;36.63;29.81;94506.28;4933598;29;20214;-81
2022/06/30 12:06:11;;;;;;;3.90;2.90;;;;;;;36.68;29.55;94522.13;4933551;29;20587;-83